Kellerton, IA (50133)

2:09 AM CST on February 10, 2016 (GMT -0600)
IEM | | Change Station
CLOSE
Current Station
Personal Weather Station
Location: Lamoni, IA
Elevation: 1180 ft
Nearby Weather Stations

Elev 1180 ft 40.63 °N, 93.94 °W | Updated 20 minutes ago

Overcast
Overcast
21 °F
Feels Like 21 °F
N
0
Wind Variable Wind from North
Gusts 0.0 mph

Today
High -- | Low -- °F
--% Chance of Precip.
Yesterday
High -- | Low -- °F
Precip. -- in
Pressure 30.20 in
Visibility 10.0 miles
Clouds Overcast 4800 ft
Windchill 21 °F
Dew Point 18 °F
Humidity 86%
Rainfall in
Snow Depth Not available.
7:16 AM 5:44 PM
Waxing Crescent, 4% visible
METAR KLWD 100753Z AUTO 32006KT 10SM OVC048 M07/M11 A3014 RMK AO2 SLP226 T10671111
Pressure 30.20 in
Visibility 10.0 miles
Clouds Overcast 4800 ft
Windchill 21 °F
Dew Point 18 °F
Humidity 86%
Rainfall in
Snow Depth Not available.
7:16 AM 5:44 PM
Waxing Crescent, 4% visible
METAR KLWD 100753Z AUTO 32006KT 10SM OVC048 M07/M11 A3014 RMK AO2 SLP226 T10671111

10-Day Weather Forecast

Almanac

Astronomy

Feb. 10, 2016 Rise Set
Actual Time
Civil Twilight
Nautical Twilight
Astronomical Twilight
Moon
Length of Visible Light
Length of Day
Tomorrow will be .
, % of the Moon is Illuminated

Today's Extremes

State Highs State Lows

Community

WunderPhotos

Upload Photos

1,891,826 photos uploaded!

WunderBlog® & News

Nearby

Air Quality

  Air Quality AQ Index Pollutant
Not available.

Snow Depth

Station Depth Elevation

Earthquake Activity

City Distance Mag. Time & Date
Minimum magnitude displayed is 2.5.

Coastal Water Temperatures

Place Temperature

Stations

Nearby Weather Stations

Station Location Temp. Windchill Dew Point Humidity Wind Precip. Elev Updated Type
                   

Watches & Warnings

There are currently no watches in effect.